Alba, Pennsylvania
Current Conditions -  °F | °C
As of 11:35 AM on Monday 26 Jan 2015 (Local Time) from KN38 Reporting Station
Light Snow Light Snow  
Wind Chill:   Ceiling: 300
Heat Index: 12°   Visibility: 0.75mi
Dew Point: 10°   Wind: 8mph
Humidity: 92%   Direction: 30°NNE
Pressure: 29.8"   Gusts: NA
Location:  41.71°N, 76.83°W
Report Text: KN38 261635Z AUTO 03007KT 3/4SM -SN BKN003 M11/M12 A2980 RMK AO2
Loading
Personal Weather Stations






























Interactive Weather Map New forecast layout! Learn more

10-Day Weather Forecast

Advertisements
Track Severe Weather on mobile